createdAt,value
2019-03-10T00:01:25.086Z,67.09
2019-03-10T00:03:54.195Z,67.09
2019-03-10T00:06:21.767Z,67.48
2019-03-10T00:08:49.285Z,67.19
2019-03-10T00:11:17.340Z,67.45
2019-03-10T00:13:44.932Z,67.45
2019-03-10T00:16:12.499Z,67.29
2019-03-10T00:18:40.301Z,67.58
2019-03-10T00:21:07.755Z,67.58
2019-03-10T00:23:35.342Z,67.51
2019-03-10T00:26:03.292Z,67.53
2019-03-10T00:28:30.907Z,67.50
2019-03-10T00:30:58.416Z,67.91
2019-03-10T00:33:26.266Z,67.69
2019-03-10T00:35:53.713Z,67.69
2019-03-10T00:38:21.216Z,67.92
2019-03-10T00:40:49.021Z,67.74
2019-03-10T00:43:16.610Z,68.01
2019-03-10T00:45:44.165Z,68.00
2019-03-10T00:48:11.662Z,68.00
2019-03-10T00:50:39.466Z,68.48
2019-03-10T00:53:07.066Z,69.04
2019-03-10T00:55:34.679Z,68.95
2019-03-10T00:58:02.709Z,69.19
2019-03-10T01:00:30.244Z,69.19
2019-03-10T01:02:57.770Z,68.99
2019-03-10T01:05:25.359Z,69.33
2019-03-10T01:07:55.124Z,68.93
2019-03-10T01:10:22.628Z,69.61
2019-03-10T01:12:50.414Z,69.61
2019-03-10T01:15:18.385Z,69.31
2019-03-10T01:17:45.854Z,69.75
2019-03-10T01:20:13.467Z,69.59
2019-03-10T01:22:44.180Z,69.69
2019-03-10T01:25:13.159Z,69.95
2019-03-10T01:27:40.675Z,69.95
2019-03-10T01:30:08.263Z,70.15
2019-03-10T01:32:35.736Z,70.12
2019-03-10T01:35:03.789Z,70.26
2019-03-10T01:37:31.411Z,70.26
2019-03-10T01:39:58.972Z,70.17
2019-03-10T01:42:27.206Z,69.98
2019-03-10T01:44:54.801Z,70.39
2019-03-10T01:47:22.354Z,70.84
2019-03-10T01:49:49.926Z,70.84
2019-03-10T01:52:17.815Z,70.46
2019-03-10T01:54:45.288Z,70.28
2019-03-10T01:57:13.470Z,70.42
2019-03-10T01:59:44.296Z,70.34
2019-03-10T02:02:11.807Z,70.30
2019-03-10T02:04:40.562Z,70.30
2019-03-10T02:07:08.483Z,70.75
2019-03-10T02:09:36.326Z,70.82
2019-03-10T02:12:03.904Z,70.32
2019-03-10T02:14:31.403Z,70.32
2019-03-10T02:16:58.991Z,70.67
2019-03-10T02:19:27.004Z,70.91
2019-03-10T02:21:54.530Z,70.76
2019-03-10T02:24:23.965Z,70.61
2019-03-10T02:26:51.784Z,70.61
2019-03-10T02:29:19.409Z,70.69
2019-03-10T02:31:46.929Z,70.69
2019-03-10T02:34:14.779Z,71.12
2019-03-10T02:36:42.388Z,71.05
2019-03-10T02:39:09.904Z,71.55
2019-03-10T02:41:37.838Z,71.07
2019-03-10T02:44:05.283Z,71.34
2019-03-10T02:46:33.970Z,71.58
2019-03-10T02:49:01.822Z,71.34
2019-03-10T02:51:29.398Z,71.34
2019-03-10T02:53:56.844Z,71.51
2019-03-10T02:56:24.364Z,71.14
2019-03-10T02:58:52.243Z,71.39
2019-03-10T03:01:19.751Z,71.39
2019-03-10T03:03:47.356Z,71.37
2019-03-10T03:06:15.234Z,71.61
2019-03-10T03:08:45.025Z,71.86
2019-03-10T03:11:12.617Z,72.94
2019-03-10T03:13:40.129Z,72.94
2019-03-10T03:16:09.442Z,73.28
2019-03-10T03:18:36.909Z,73.77
2019-03-10T03:21:04.480Z,73.77
2019-03-10T03:23:32.538Z,73.27
2019-03-10T03:26:00.052Z,73.27
2019-03-10T03:28:30.164Z,73.46
2019-03-10T03:30:57.726Z,73.73
2019-03-10T03:33:25.705Z,73.89
2019-03-10T03:35:53.296Z,73.73
2019-03-10T03:38:20.916Z,74.55
2019-03-10T03:40:48.421Z,74.56
2019-03-10T03:43:16.255Z,74.56
2019-03-10T03:45:43.809Z,74.32
2019-03-10T03:48:11.663Z,74.58
2019-03-10T03:50:39.229Z,74.87
2019-03-10T03:53:07.136Z,74.25
2019-03-10T03:55:34.644Z,75.06
2019-03-10T03:58:02.140Z,74.39
2019-03-10T04:00:29.582Z,74.87
2019-03-10T04:02:57.617Z,74.62
2019-03-10T04:05:25.215Z,75.23
2019-03-10T04:07:52.725Z,75.11
2019-03-10T04:10:20.213Z,75.54
2019-03-10T04:12:47.835Z,75.23
2019-03-10T04:15:15.769Z,75.28
2019-03-10T04:17:43.279Z,74.96
2019-03-10T04:20:12.736Z,75.12
2019-03-10T04:22:40.556Z,75.12
2019-03-10T04:25:08.444Z,75.41
2019-03-10T04:27:36.245Z,75.49
2019-03-10T04:30:04.084Z,75.98
2019-03-10T04:32:31.626Z,75.57
2019-03-10T04:34:59.628Z,75.88
2019-03-10T04:37:27.239Z,75.88
2019-03-10T04:39:54.780Z,75.96
2019-03-10T04:42:22.321Z,75.88
2019-03-10T04:44:50.322Z,76.20
2019-03-10T04:47:17.920Z,76.40
2019-03-10T04:49:45.443Z,75.78
2019-03-10T04:52:13.046Z,75.78
2019-03-10T04:55:06.072Z,75.87
2019-03-10T04:57:33.636Z,75.87
2019-03-10T05:00:01.128Z,76.42
2019-03-10T05:02:29.092Z,75.85
2019-03-10T05:04:56.657Z,75.85
2019-03-10T05:07:24.130Z,75.91
2019-03-10T05:09:51.686Z,75.84
2019-03-10T05:12:19.209Z,75.84
2019-03-10T05:14:46.728Z,75.78
2019-03-10T05:17:14.171Z,76.32
2019-03-10T05:19:42.148Z,76.16
2019-03-10T05:22:09.678Z,76.13
2019-03-10T05:24:37.243Z,76.01
2019-03-10T05:27:06.765Z,76.01
2019-03-10T05:29:34.331Z,75.76
2019-03-10T05:32:01.813Z,75.76
2019-03-10T05:34:29.398Z,75.71
2019-03-10T05:36:57.259Z,75.67
2019-03-10T05:39:24.778Z,76.23
2019-03-10T05:41:52.307Z,75.69
2019-03-10T05:44:19.817Z,75.69
2019-03-10T05:46:47.276Z,76.06
2019-03-10T05:49:14.799Z,75.71
2019-03-10T05:51:42.394Z,76.14
2019-03-10T05:54:10.326Z,76.14
2019-03-10T05:56:37.924Z,76.09
2019-03-10T05:59:05.468Z,76.41
2019-03-10T06:01:33.017Z,76.55
2019-03-10T06:04:01.186Z,76.78
2019-03-10T06:06:28.779Z,76.78
2019-03-10T06:08:56.329Z,76.53
2019-03-10T06:11:24.393Z,76.21
2019-03-10T06:13:57.975Z,76.52
2019-03-10T06:16:25.504Z,76.52
2019-03-10T06:18:53.051Z,76.94
2019-03-10T06:21:20.879Z,77.11
2019-03-10T06:23:48.374Z,77.32
2019-03-10T06:26:15.856Z,77.44
2019-03-10T06:28:43.356Z,77.49
2019-03-10T06:31:11.113Z,77.65
2019-03-10T06:33:38.619Z,77.55
2019-03-10T06:36:06.199Z,77.55
2019-03-10T06:38:33.768Z,77.61
2019-03-10T06:41:01.661Z,77.94
2019-03-10T06:43:29.625Z,78.01
2019-03-10T06:45:57.163Z,77.34
2019-03-10T06:48:25.159Z,78.06
2019-03-10T06:50:52.934Z,78.28
2019-03-10T06:53:20.799Z,78.04
2019-03-10T06:55:48.638Z,77.97
2019-03-10T06:58:16.087Z,78.25
2019-03-10T07:00:43.563Z,78.52
2019-03-10T07:03:11.623Z,78.52
2019-03-10T07:05:39.066Z,78.15
2019-03-10T07:08:06.566Z,77.75
2019-03-10T07:10:35.415Z,77.92
2019-03-10T07:13:03.003Z,77.94
2019-03-10T07:15:30.590Z,78.43
2019-03-10T07:17:58.359Z,78.27
2019-03-10T07:20:26.209Z,78.03
2019-03-10T07:22:53.768Z,78.16
2019-03-10T07:25:24.370Z,78.38
2019-03-10T07:28:03.950Z,77.60
2019-03-10T07:30:43.654Z,77.60
2019-03-10T07:33:20.576Z,77.58
2019-03-10T07:36:13.321Z,77.90
2019-03-10T07:38:58.332Z,77.90
2019-03-10T07:41:32.883Z,77.99
2019-03-10T07:44:19.320Z,78.23
2019-03-10T07:47:05.683Z,78.37
2019-03-10T07:50:01.207Z,77.45
2019-03-10T07:52:40.807Z,77.45
2019-03-10T07:55:38.046Z,78.01
2019-03-10T07:58:28.341Z,77.32
2019-03-10T08:01:21.008Z,78.13
2019-03-10T08:04:07.314Z,77.60
2019-03-10T08:06:52.176Z,77.86
2019-03-10T08:09:30.520Z,78.30
2019-03-10T08:12:15.515Z,78.22
2019-03-10T08:14:57.747Z,78.10
2019-03-10T08:17:42.724Z,78.12
2019-03-10T08:20:28.302Z,78.12
2019-03-10T08:23:12.525Z,77.99
2019-03-10T08:25:58.083Z,77.99
2019-03-10T08:28:44.853Z,78.01
2019-03-10T08:31:43.788Z,78.01
2019-03-10T08:34:36.388Z,78.04
2019-03-10T08:37:29.077Z,77.63
2019-03-10T08:40:18.565Z,77.63
2019-03-10T08:42:57.683Z,77.38
2019-03-10T08:45:42.474Z,77.84
2019-03-10T08:48:29.359Z,77.21
2019-03-10T08:51:12.235Z,77.13
2019-03-10T08:54:05.870Z,77.04
2019-03-10T08:56:55.172Z,77.36
2019-03-10T08:59:44.996Z,77.43
2019-03-10T09:02:36.900Z,77.38
2019-03-10T09:05:22.269Z,77.38
2019-03-10T09:08:14.492Z,77.05
2019-03-10T09:10:50.508Z,76.99
2019-03-10T09:13:42.599Z,76.91
2019-03-10T09:16:25.852Z,76.87
2019-03-10T09:19:01.390Z,76.81
2019-03-10T09:21:57.230Z,76.11
2019-03-10T09:24:42.870Z,76.17
2019-03-10T09:27:28.655Z,76.17
2019-03-10T09:30:21.348Z,75.82
2019-03-10T09:33:06.892Z,75.99
2019-03-10T09:35:42.142Z,75.99
2019-03-10T09:38:28.490Z,75.94
2019-03-10T09:41:20.687Z,75.42
2019-03-10T09:44:07.072Z,75.42
2019-03-10T09:46:55.868Z,75.55
2019-03-10T09:49:41.913Z,75.21
2019-03-10T09:52:29.733Z,75.69
2019-03-10T09:55:08.502Z,75.14
2019-03-10T09:57:50.063Z,75.42
2019-03-10T10:00:34.786Z,74.64
2019-03-10T10:03:19.841Z,74.36
2019-03-10T10:05:53.751Z,73.71
2019-03-10T10:08:49.520Z,73.58
2019-03-10T10:11:37.281Z,73.63
2019-03-10T10:14:22.167Z,73.22
2019-03-10T10:17:02.236Z,72.90
2019-03-10T10:19:47.579Z,72.90
2019-03-10T10:22:31.907Z,72.58
2019-03-10T10:25:12.153Z,72.45
2019-03-10T10:28:00.902Z,72.45
2019-03-10T10:30:47.618Z,72.38
2019-03-10T10:33:23.928Z,72.38
2019-03-10T10:36:13.659Z,73.17
2019-03-10T10:39:02.924Z,73.31
2019-03-10T10:41:48.513Z,73.56
2019-03-10T10:44:36.005Z,73.75
2019-03-10T10:47:31.596Z,73.75
2019-03-10T10:50:29.972Z,74.44
2019-03-10T10:53:22.769Z,74.87
2019-03-10T10:56:07.799Z,75.49
2019-03-10T10:58:54.640Z,75.49
2019-03-10T11:01:35.999Z,75.71
2019-03-10T11:04:22.995Z,75.64
2019-03-10T11:07:12.221Z,75.82
2019-03-10T11:10:05.733Z,75.95
2019-03-10T11:13:10.353Z,75.95
2019-03-10T11:15:49.860Z,72.80
2019-03-10T11:18:51.070Z,69.30
2019-03-10T11:21:33.741Z,68.71
2019-03-10T11:24:07.261Z,68.71
2019-03-10T11:26:54.529Z,70.68
2019-03-10T11:29:40.936Z,71.14
2019-03-10T11:32:39.684Z,71.14
2019-03-10T11:35:24.810Z,72.43
2019-03-10T11:38:09.654Z,72.54
2019-03-10T11:41:05.078Z,72.76
2019-03-10T11:43:41.443Z,72.62
2019-03-10T11:46:24.849Z,72.62
2019-03-10T11:49:32.191Z,73.27
2019-03-10T11:52:21.296Z,73.27
2019-03-10T11:55:17.017Z,74.53
2019-03-10T11:57:57.194Z,74.53
2019-03-10T12:00:33.320Z,75.08
2019-03-10T12:03:18.414Z,75.22
2019-03-10T12:05:54.674Z,74.69
2019-03-10T12:08:40.291Z,73.31
2019-03-10T12:11:08.133Z,73.02
2019-03-10T12:13:38.823Z,73.09
2019-03-10T12:16:06.648Z,72.88
2019-03-10T12:18:34.631Z,72.68
2019-03-10T12:21:03.497Z,72.68
2019-03-10T12:23:31.024Z,72.48
2019-03-10T12:25:59.048Z,71.98
2019-03-10T12:28:26.652Z,71.98
2019-03-10T12:30:54.206Z,71.92
2019-03-10T12:33:33.646Z,71.92
2019-03-10T12:36:01.188Z,71.68
2019-03-10T12:38:29.104Z,71.38
2019-03-10T12:40:59.416Z,71.38
2019-03-10T12:43:27.007Z,71.12
2019-03-10T12:45:59.921Z,70.34
2019-03-10T12:48:27.463Z,70.34
2019-03-10T12:50:58.184Z,69.66
2019-03-10T12:53:26.050Z,68.94
2019-03-10T12:55:54.882Z,68.94
2019-03-10T12:58:22.446Z,69.49
2019-03-10T13:00:50.250Z,69.84
2019-03-10T13:03:20.269Z,70.31
2019-03-10T13:05:47.746Z,70.16
2019-03-10T13:08:18.742Z,70.16
2019-03-10T13:10:46.322Z,70.39
2019-03-10T13:13:16.053Z,70.39
2019-03-10T13:15:45.025Z,70.86
2019-03-10T13:18:12.531Z,70.90
2019-03-10T13:20:40.991Z,70.92
2019-03-10T13:23:10.218Z,71.52
2019-03-10T13:25:46.502Z,72.43
2019-03-10T13:28:16.249Z,74.50
2019-03-10T13:30:43.526Z,74.50
2019-03-10T13:33:11.031Z,74.78
2019-03-10T13:35:41.834Z,75.18
2019-03-10T13:38:10.629Z,75.71
2019-03-10T13:40:38.609Z,76.24
2019-03-10T13:43:06.573Z,76.82
2019-03-10T13:45:35.427Z,77.12
2019-03-10T13:48:05.904Z,76.57
2019-03-10T13:50:33.648Z,76.57
2019-03-10T13:53:02.309Z,76.76
2019-03-10T13:58:08.436Z,76.90
2019-03-10T14:00:39.997Z,76.81
2019-03-10T14:03:09.403Z,77.00
2019-03-10T14:05:44.177Z,77.32
2019-03-10T14:08:32.309Z,76.98
2019-03-10T14:11:01.887Z,76.65
2019-03-10T14:13:29.860Z,76.65
2019-03-10T14:15:57.413Z,77.01
2019-03-10T14:18:28.140Z,77.04
2019-03-10T14:20:55.656Z,76.27
2019-03-10T14:23:24.435Z,76.27
2019-03-10T14:26:01.341Z,75.81
2019-03-10T14:28:30.774Z,75.23
2019-03-10T14:31:01.556Z,74.17
2019-03-10T14:33:31.383Z,72.27
2019-03-10T14:36:01.720Z,72.27
2019-03-10T14:38:29.706Z,69.87
2019-03-10T14:40:57.215Z,69.87
2019-03-10T14:43:24.774Z,69.16
2019-03-10T14:45:52.811Z,67.79
2019-03-10T14:48:20.381Z,67.79
2019-03-10T14:50:47.836Z,67.46
2019-03-10T14:53:15.796Z,67.06
2019-03-10T14:55:44.936Z,66.97
2019-03-10T14:58:12.622Z,66.81
2019-03-10T15:00:41.017Z,66.36
2019-03-10T15:03:08.680Z,66.29
2019-03-10T15:05:36.146Z,66.29
2019-03-10T15:08:03.994Z,65.75
2019-03-10T15:10:31.596Z,65.75
2019-03-10T15:13:03.334Z,65.68
2019-03-10T15:15:31.331Z,65.55
2019-03-10T15:17:58.781Z,65.21
2019-03-10T15:20:31.940Z,65.21
2019-03-10T15:22:59.882Z,65.26
2019-03-10T15:25:27.499Z,64.69
2019-03-10T15:28:03.848Z,64.69
2019-03-10T15:30:31.854Z,65.12
2019-03-10T15:32:59.402Z,65.11
2019-03-10T15:35:27.043Z,65.11
2019-03-10T15:37:55.015Z,65.12
2019-03-10T15:40:22.621Z,65.55
2019-03-10T15:43:09.853Z,66.60
2019-03-10T15:45:37.639Z,65.94
2019-03-10T15:48:05.271Z,65.91
2019-03-10T15:50:32.833Z,65.55
2019-03-10T15:53:00.716Z,65.55
2019-03-10T15:55:30.000Z,65.78
2019-03-10T15:57:57.493Z,65.79
2019-03-10T16:00:25.472Z,66.35
2019-03-10T16:02:54.206Z,66.35
2019-03-10T16:05:24.751Z,65.85
2019-03-10T16:07:52.704Z,66.10
2019-03-10T16:10:23.325Z,65.90
2019-03-10T16:12:53.736Z,66.26
2019-03-10T16:15:21.768Z,66.12
2019-03-10T16:17:49.240Z,66.12
2019-03-10T16:20:16.833Z,66.14
2019-03-10T16:22:47.277Z,66.11
2019-03-10T16:25:14.873Z,66.11
2019-03-10T16:27:42.398Z,66.19
2019-03-10T16:30:10.226Z,66.74
2019-03-10T16:32:37.817Z,66.74
2019-03-10T16:35:06.587Z,66.44
2019-03-10T16:37:34.627Z,66.38
2019-03-10T16:40:04.917Z,66.81
2019-03-10T16:42:32.452Z,67.00
2019-03-10T16:45:00.519Z,67.00
2019-03-10T16:47:27.983Z,67.56
2019-03-10T16:49:55.885Z,69.06
2019-03-10T16:52:23.481Z,69.68
2019-03-10T16:54:51.401Z,69.68
2019-03-10T16:57:19.200Z,70.71
2019-03-10T16:59:46.910Z,71.58
2019-03-10T17:02:14.496Z,72.02
2019-03-10T17:04:42.426Z,72.45
2019-03-10T17:07:10.991Z,72.96
2019-03-10T17:09:38.590Z,72.96
2019-03-10T17:12:06.611Z,72.72
2019-03-10T17:14:35.779Z,72.83
2019-03-10T17:17:03.344Z,72.86
2019-03-10T17:19:37.819Z,72.51
2019-03-10T17:22:16.463Z,72.93
2019-03-10T17:24:44.365Z,73.47
2019-03-10T17:27:14.721Z,73.46
2019-03-10T17:29:42.251Z,73.12
2019-03-10T17:32:14.799Z,73.12
2019-03-10T17:34:42.340Z,73.32
2019-03-10T17:37:12.568Z,73.96
2019-03-10T17:39:40.554Z,73.55
2019-03-10T17:42:08.105Z,73.97
2019-03-10T17:44:41.273Z,74.26
2019-03-10T17:47:09.888Z,75.00
2019-03-10T17:49:37.343Z,75.00
2019-03-10T17:52:14.389Z,74.85
2019-03-10T17:54:36.572Z,74.85
2019-03-10T17:57:07.161Z,75.67
2019-03-10T17:59:34.646Z,75.07
2019-03-10T18:02:08.999Z,75.39
2019-03-10T18:04:35.167Z,75.98
2019-03-10T18:07:02.732Z,75.98
2019-03-10T18:09:33.614Z,76.03
2019-03-10T18:12:07.278Z,76.03
2019-03-10T18:14:36.151Z,76.23
2019-03-10T18:17:04.154Z,76.20
2019-03-10T18:19:31.621Z,75.87
2019-03-10T18:21:59.870Z,76.01
2019-03-10T18:24:27.803Z,76.01
2019-03-10T18:26:55.322Z,76.29
2019-03-10T18:29:22.931Z,76.27
2019-03-10T18:31:53.788Z,76.28
2019-03-10T18:34:21.339Z,76.31
2019-03-10T18:36:51.208Z,76.82
2019-03-10T18:39:22.009Z,76.82
2019-03-10T18:41:51.954Z,76.30
2019-03-10T18:44:19.520Z,76.85
2019-03-10T18:46:51.548Z,76.85
2019-03-10T18:49:20.314Z,76.57
2019-03-10T18:51:48.541Z,76.67
2019-03-10T18:54:16.468Z,77.52
2019-03-10T18:56:49.055Z,77.52
2019-03-10T18:59:16.648Z,77.12
2019-03-10T19:01:45.925Z,77.46
2019-03-10T19:04:13.499Z,77.92
2019-03-10T19:06:41.120Z,77.45
2019-03-10T19:09:08.988Z,77.45
2019-03-10T19:11:36.467Z,77.69
2019-03-10T19:14:04.811Z,77.81
2019-03-10T19:16:35.416Z,77.90
2019-03-10T19:19:05.768Z,77.84
2019-03-10T19:21:36.371Z,77.81
2019-03-10T19:24:06.027Z,78.16
2019-03-10T19:26:36.246Z,78.16
2019-03-10T19:29:14.098Z,78.23
2019-03-10T19:31:45.632Z,77.91
2019-03-10T19:37:03.051Z,79.09
2019-03-10T19:39:36.256Z,78.58
2019-03-10T19:42:03.737Z,78.58
2019-03-10T19:44:33.128Z,79.06
2019-03-10T19:47:03.674Z,79.16
2019-03-10T19:49:31.278Z,79.16
2019-03-10T19:51:59.759Z,79.96
2019-03-10T19:54:30.577Z,79.50
2019-03-10T19:56:58.090Z,80.10
2019-03-10T19:59:25.630Z,79.70
2019-03-10T20:01:56.456Z,79.99
2019-03-10T20:04:32.475Z,79.62
2019-03-10T20:07:00.227Z,80.15
2019-03-10T20:09:27.788Z,80.15
2019-03-10T20:11:55.336Z,79.72
2019-03-10T20:14:23.488Z,79.72
2019-03-10T20:16:54.520Z,80.27
2019-03-10T20:19:22.111Z,79.58
2019-03-10T20:21:51.910Z,79.58
2019-03-10T20:24:21.096Z,79.80
2019-03-10T20:26:48.679Z,79.21
2019-03-10T20:29:19.047Z,79.21
2019-03-10T20:31:46.539Z,79.33
2019-03-10T20:34:15.265Z,79.33
2019-03-10T20:36:43.223Z,79.13
2019-03-10T20:39:12.911Z,78.96
2019-03-10T20:41:40.550Z,78.63
2019-03-10T20:44:14.227Z,78.99
2019-03-10T20:46:41.847Z,78.99
2019-03-10T20:49:09.396Z,78.72
2019-03-10T20:51:37.362Z,78.73
2019-03-10T20:54:05.244Z,78.53
2019-03-10T20:56:32.795Z,78.53
2019-03-10T20:59:05.231Z,78.47
2019-03-10T21:01:36.642Z,78.47
2019-03-10T21:04:07.197Z,79.14
2019-03-10T21:06:37.922Z,79.23
2019-03-10T21:09:07.870Z,78.88
2019-03-10T21:11:35.459Z,79.39
2019-03-10T21:14:06.260Z,79.39
2019-03-10T21:16:33.813Z,79.05
2019-03-10T21:19:01.403Z,79.05
2019-03-10T21:21:30.957Z,79.40
2019-03-10T21:24:02.951Z,79.50
2019-03-10T21:26:30.583Z,79.61
2019-03-10T21:28:58.505Z,79.76
2019-03-10T21:31:26.018Z,79.68
2019-03-10T21:33:53.469Z,79.68
2019-03-10T21:36:21.499Z,79.82
2019-03-10T21:38:48.992Z,79.98
2019-03-10T21:41:16.544Z,79.98
2019-03-10T21:43:44.514Z,79.39
2019-03-10T21:46:14.073Z,79.58
2019-03-10T21:48:41.702Z,79.58
2019-03-10T21:51:09.455Z,79.48
2019-03-10T21:53:39.743Z,79.16
2019-03-10T21:56:07.307Z,79.16
2019-03-10T21:58:37.923Z,78.78
2019-03-10T22:01:05.529Z,79.02
2019-03-10T22:03:33.077Z,79.02
2019-03-10T22:06:00.993Z,79.60
2019-03-10T22:08:28.613Z,79.33
2019-03-10T22:10:57.361Z,79.76
2019-03-10T22:13:24.959Z,79.23
2019-03-10T22:15:59.319Z,78.94
2019-03-10T22:18:26.850Z,79.10
2019-03-10T22:20:57.644Z,79.53
2019-03-10T22:23:25.460Z,78.84
2019-03-10T22:25:56.049Z,78.94
2019-03-10T22:28:23.529Z,79.48
2019-03-10T22:30:51.072Z,79.48
2019-03-10T22:33:20.330Z,79.19
2019-03-10T22:35:48.141Z,79.19
2019-03-10T22:38:15.647Z,78.83
2019-03-10T22:40:43.690Z,78.68
2019-03-10T22:43:13.250Z,78.45
2019-03-10T22:45:40.806Z,78.45
2019-03-10T22:48:08.661Z,78.69
2019-03-10T22:50:36.102Z,78.56
2019-03-10T22:53:03.677Z,78.73
2019-03-10T22:55:31.549Z,78.31
2019-03-10T22:57:59.055Z,78.22
2019-03-10T23:00:35.116Z,78.43
2019-03-10T23:03:03.004Z,78.43
2019-03-10T23:05:30.582Z,78.12
2019-03-10T23:07:58.024Z,78.11
2019-03-10T23:10:27.159Z,78.35
2019-03-10T23:12:56.538Z,78.35
2019-03-10T23:15:24.332Z,78.27
2019-03-10T23:17:51.974Z,78.50
2019-03-10T23:20:19.446Z,78.24
2019-03-10T23:22:46.962Z,78.18
2019-03-10T23:25:14.459Z,78.37
2019-03-10T23:27:42.522Z,78.37
2019-03-10T23:30:10.067Z,77.91
2019-03-10T23:32:37.600Z,78.12
2019-03-10T23:35:05.112Z,77.52
2019-03-10T23:37:32.918Z,77.90
2019-03-10T23:40:00.472Z,77.49
2019-03-10T23:42:30.965Z,77.49
2019-03-10T23:44:58.454Z,77.10
2019-03-10T23:47:26.432Z,77.10
2019-03-10T23:49:53.877Z,77.10
2019-03-10T23:52:21.341Z,77.10
2019-03-10T23:54:50.849Z,77.50
2019-03-10T23:57:17.996Z,77.50
2019-03-10T23:59:45.983Z,77.50
